sensor_id;sensor_type;location;lat;lon;timestamp;P1;durP1;ratioP1;P2;durP2;ratioP2
56541;SDS011;42438;53.174;6.730;2024-01-16T00:00:21;4.85;;;1.40;;
56541;SDS011;42438;53.174;6.730;2024-01-16T00:02:51;5.10;;;1.20;;
56541;SDS011;42438;53.174;6.730;2024-01-16T00:05:22;7.25;;;1.58;;
56541;SDS011;42438;53.174;6.730;2024-01-16T00:07:52;6.60;;;1.50;;
56541;SDS011;42438;53.174;6.730;2024-01-16T00:10:23;5.93;;;1.25;;
56541;SDS011;42438;53.174;6.730;2024-01-16T00:12:54;6.78;;;1.40;;
56541;SDS011;42438;53.174;6.730;2024-01-16T00:15:25;6.95;;;1.33;;
56541;SDS011;42438;53.174;6.730;2024-01-16T00:17:55;4.78;;;1.15;;
56541;SDS011;42438;53.174;6.730;2024-01-16T00:20:26;7.10;;;1.25;;
56541;SDS011;42438;53.174;6.730;2024-01-16T00:22:56;4.82;;;1.23;;
56541;SDS011;42438;53.174;6.730;2024-01-16T00:25:27;6.05;;;1.35;;
56541;SDS011;42438;53.174;6.730;2024-01-16T00:27:58;8.98;;;1.92;;
56541;SDS011;42438;53.174;6.730;2024-01-16T00:30:29;4.10;;;1.25;;
56541;SDS011;42438;53.174;6.730;2024-01-16T00:32:59;5.57;;;1.15;;
56541;SDS011;42438;53.174;6.730;2024-01-16T00:35:30;7.57;;;0.95;;
56541;SDS011;42438;53.174;6.730;2024-01-16T00:38:01;4.88;;;1.40;;
56541;SDS011;42438;53.174;6.730;2024-01-16T00:40:31;3.47;;;1.02;;
56541;SDS011;42438;53.174;6.730;2024-01-16T00:43:02;7.75;;;1.17;;
56541;SDS011;42438;53.174;6.730;2024-01-16T00:45:33;5.40;;;1.40;;
56541;SDS011;42438;53.174;6.730;2024-01-16T00:48:04;5.07;;;2.10;;
56541;SDS011;42438;53.174;6.730;2024-01-16T00:50:36;4.75;;;1.10;;
56541;SDS011;42438;53.174;6.730;2024-01-16T00:53:06;3.38;;;1.35;;
56541;SDS011;42438;53.174;6.730;2024-01-16T00:55:37;5.03;;;0.95;;
56541;SDS011;42438;53.174;6.730;2024-01-16T00:58:07;3.97;;;1.05;;
56541;SDS011;42438;53.174;6.730;2024-01-16T01:00:38;5.45;;;0.90;;
56541;SDS011;42438;53.174;6.730;2024-01-16T01:03:09;4.93;;;1.25;;
56541;SDS011;42438;53.174;6.730;2024-01-16T01:05:39;2.25;;;0.80;;
56541;SDS011;42438;53.174;6.730;2024-01-16T01:08:10;2.75;;;0.90;;
56541;SDS011;42438;53.174;6.730;2024-01-16T01:10:40;2.90;;;0.85;;
56541;SDS011;42438;53.174;6.730;2024-01-16T01:13:11;4.63;;;1.10;;
56541;SDS011;42438;53.174;6.730;2024-01-16T01:15:42;3.63;;;0.90;;
56541;SDS011;42438;53.174;6.730;2024-01-16T01:18:12;3.33;;;0.90;;
56541;SDS011;42438;53.174;6.730;2024-01-16T01:20:43;2.25;;;0.85;;
56541;SDS011;42438;53.174;6.730;2024-01-16T01:23:14;4.97;;;0.88;;
56541;SDS011;42438;53.174;6.730;2024-01-16T01:25:44;2.28;;;0.70;;
56541;SDS011;42438;53.174;6.730;2024-01-16T01:28:15;7.43;;;1.00;;
56541;SDS011;42438;53.174;6.730;2024-01-16T01:30:45;4.32;;;0.95;;
56541;SDS011;42438;53.174;6.730;2024-01-16T01:33:16;5.00;;;1.15;;
56541;SDS011;42438;53.174;6.730;2024-01-16T01:35:47;5.45;;;1.05;;
56541;SDS011;42438;53.174;6.730;2024-01-16T01:38:17;4.40;;;0.73;;
56541;SDS011;42438;53.174;6.730;2024-01-16T01:40:49;6.72;;;0.90;;
56541;SDS011;42438;53.174;6.730;2024-01-16T01:43:23;4.05;;;0.88;;
56541;SDS011;42438;53.174;6.730;2024-01-16T01:48:46;5.88;;;1.33;;
56541;SDS011;42438;53.174;6.730;2024-01-16T01:51:20;6.10;;;0.90;;
56541;SDS011;42438;53.174;6.730;2024-01-16T01:53:51;3.95;;;0.98;;
56541;SDS011;42438;53.174;6.730;2024-01-16T01:56:23;3.10;;;1.03;;
56541;SDS011;42438;53.174;6.730;2024-01-16T01:58:55;6.20;;;1.08;;
56541;SDS011;42438;53.174;6.730;2024-01-16T02:01:28;5.35;;;1.20;;
56541;SDS011;42438;53.174;6.730;2024-01-16T02:04:01;8.80;;;1.33;;
56541;SDS011;42438;53.174;6.730;2024-01-16T02:06:32;6.85;;;1.20;;
56541;SDS011;42438;53.174;6.730;2024-01-16T02:09:03;5.30;;;1.23;;
56541;SDS011;42438;53.174;6.730;2024-01-16T02:11:37;4.68;;;0.98;;
56541;SDS011;42438;53.174;6.730;2024-01-16T02:14:07;3.50;;;1.00;;
56541;SDS011;42438;53.174;6.730;2024-01-16T02:16:39;3.90;;;0.90;;
56541;SDS011;42438;53.174;6.730;2024-01-16T02:19:11;5.43;;;1.20;;
56541;SDS011;42438;53.174;6.730;2024-01-16T02:21:43;4.80;;;1.52;;
56541;SDS011;42438;53.174;6.730;2024-01-16T02:24:18;3.95;;;1.00;;
56541;SDS011;42438;53.174;6.730;2024-01-16T02:26:49;4.32;;;1.17;;
56541;SDS011;42438;53.174;6.730;2024-01-16T02:29:20;4.38;;;1.00;;
56541;SDS011;42438;53.174;6.730;2024-01-16T02:31:50;5.13;;;1.35;;
56541;SDS011;42438;53.174;6.730;2024-01-16T02:34:21;4.60;;;0.82;;
56541;SDS011;42438;53.174;6.730;2024-01-16T02:36:51;7.13;;;1.25;;
56541;SDS011;42438;53.174;6.730;2024-01-16T02:39:22;5.07;;;1.30;;
56541;SDS011;42438;53.174;6.730;2024-01-16T02:41:53;4.78;;;1.00;;
56541;SDS011;42438;53.174;6.730;2024-01-16T02:44:23;5.97;;;2.35;;
56541;SDS011;42438;53.174;6.730;2024-01-16T02:46:54;3.25;;;1.08;;
56541;SDS011;42438;53.174;6.730;2024-01-16T02:49:24;7.05;;;1.38;;
56541;SDS011;42438;53.174;6.730;2024-01-16T02:51:55;3.70;;;1.00;;
56541;SDS011;42438;53.174;6.730;2024-01-16T02:54:26;2.45;;;0.85;;
56541;SDS011;42438;53.174;6.730;2024-01-16T02:56:57;4.88;;;1.42;;
56541;SDS011;42438;53.174;6.730;2024-01-16T02:59:27;8.60;;;1.33;;
56541;SDS011;42438;53.174;6.730;2024-01-16T03:02:00;4.25;;;0.95;;
56541;SDS011;42438;53.174;6.730;2024-01-16T03:04:31;4.22;;;1.10;;
56541;SDS011;42438;53.174;6.730;2024-01-16T03:07:01;2.33;;;0.77;;
56541;SDS011;42438;53.174;6.730;2024-01-16T03:09:32;2.30;;;0.82;;
56541;SDS011;42438;53.174;6.730;2024-01-16T03:12:03;5.57;;;0.90;;
56541;SDS011;42438;53.174;6.730;2024-01-16T03:14:34;3.30;;;0.90;;
56541;SDS011;42438;53.174;6.730;2024-01-16T03:17:06;4.00;;;1.63;;
56541;SDS011;42438;53.174;6.730;2024-01-16T03:19:37;6.10;;;1.17;;
56541;SDS011;42438;53.174;6.730;2024-01-16T03:22:07;2.80;;;1.05;;
56541;SDS011;42438;53.174;6.730;2024-01-16T03:24:38;4.32;;;1.10;;
56541;SDS011;42438;53.174;6.730;2024-01-16T03:27:09;4.25;;;0.80;;
56541;SDS011;42438;53.174;6.730;2024-01-16T03:29:40;6.00;;;1.00;;
56541;SDS011;42438;53.174;6.730;2024-01-16T03:32:10;3.15;;;1.05;;
56541;SDS011;42438;53.174;6.730;2024-01-16T03:34:41;9.07;;;1.45;;
56541;SDS011;42438;53.174;6.730;2024-01-16T03:37:11;8.68;;;1.25;;
56541;SDS011;42438;53.174;6.730;2024-01-16T03:39:42;6.85;;;1.77;;
56541;SDS011;42438;53.174;6.730;2024-01-16T03:42:14;2.97;;;0.70;;
56541;SDS011;42438;53.174;6.730;2024-01-16T03:44:45;5.65;;;1.25;;
56541;SDS011;42438;53.174;6.730;2024-01-16T03:47:15;5.00;;;1.52;;
56541;SDS011;42438;53.174;6.730;2024-01-16T03:49:46;5.03;;;1.20;;
56541;SDS011;42438;53.174;6.730;2024-01-16T03:52:17;4.55;;;1.10;;
56541;SDS011;42438;53.174;6.730;2024-01-16T03:54:47;8.18;;;1.30;;
56541;SDS011;42438;53.174;6.730;2024-01-16T03:57:18;5.00;;;1.15;;
56541;SDS011;42438;53.174;6.730;2024-01-16T03:59:48;4.88;;;1.05;;
56541;SDS011;42438;53.174;6.730;2024-01-16T04:02:19;6.18;;;1.10;;
56541;SDS011;42438;53.174;6.730;2024-01-16T04:04:50;4.88;;;1.38;;
56541;SDS011;42438;53.174;6.730;2024-01-16T04:07:22;6.22;;;1.52;;
56541;SDS011;42438;53.174;6.730;2024-01-16T04:12:24;5.38;;;1.83;;
56541;SDS011;42438;53.174;6.730;2024-01-16T04:14:55;3.28;;;1.13;;
56541;SDS011;42438;53.174;6.730;2024-01-16T04:17:25;4.28;;;1.02;;
56541;SDS011;42438;53.174;6.730;2024-01-16T04:19:56;6.40;;;1.00;;
56541;SDS011;42438;53.174;6.730;2024-01-16T04:22:27;9.38;;;1.25;;
56541;SDS011;42438;53.174;6.730;2024-01-16T04:24:57;5.50;;;1.30;;
56541;SDS011;42438;53.174;6.730;2024-01-16T04:27:28;6.35;;;1.90;;
56541;SDS011;42438;53.174;6.730;2024-01-16T04:29:59;4.75;;;1.20;;
56541;SDS011;42438;53.174;6.730;2024-01-16T04:32:30;5.70;;;1.05;;
56541;SDS011;42438;53.174;6.730;2024-01-16T04:35:00;8.00;;;1.42;;
56541;SDS011;42438;53.174;6.730;2024-01-16T04:37:31;6.43;;;1.48;;
56541;SDS011;42438;53.174;6.730;2024-01-16T04:40:01;4.05;;;1.08;;
56541;SDS011;42438;53.174;6.730;2024-01-16T04:42:32;5.50;;;1.20;;
56541;SDS011;42438;53.174;6.730;2024-01-16T04:45:04;5.55;;;1.30;;
56541;SDS011;42438;53.174;6.730;2024-01-16T04:47:35;4.90;;;1.10;;
56541;SDS011;42438;53.174;6.730;2024-01-16T04:50:05;4.88;;;1.13;;
56541;SDS011;42438;53.174;6.730;2024-01-16T04:52:38;11.15;;;1.50;;
56541;SDS011;42438;53.174;6.730;2024-01-16T04:55:08;7.78;;;2.42;;
56541;SDS011;42438;53.174;6.730;2024-01-16T04:57:39;5.70;;;1.45;;
56541;SDS011;42438;53.174;6.730;2024-01-16T05:00:10;5.88;;;1.45;;
56541;SDS011;42438;53.174;6.730;2024-01-16T05:02:41;10.50;;;3.22;;
56541;SDS011;42438;53.174;6.730;2024-01-16T05:05:13;4.35;;;1.45;;
56541;SDS011;42438;53.174;6.730;2024-01-16T05:07:43;7.55;;;1.30;;
56541;SDS011;42438;53.174;6.730;2024-01-16T05:10:15;5.10;;;1.00;;
56541;SDS011;42438;53.174;6.730;2024-01-16T05:12:45;7.35;;;1.20;;
56541;SDS011;42438;53.174;6.730;2024-01-16T05:15:16;6.50;;;1.65;;
56541;SDS011;42438;53.174;6.730;2024-01-16T05:17:47;6.72;;;1.92;;
56541;SDS011;42438;53.174;6.730;2024-01-16T05:20:17;4.63;;;1.50;;
56541;SDS011;42438;53.174;6.730;2024-01-16T05:22:48;6.40;;;2.53;;
56541;SDS011;42438;53.174;6.730;2024-01-16T05:25:18;10.68;;;1.60;;
56541;SDS011;42438;53.174;6.730;2024-01-16T05:27:50;3.40;;;1.20;;
56541;SDS011;42438;53.174;6.730;2024-01-16T05:30:20;6.10;;;1.70;;
56541;SDS011;42438;53.174;6.730;2024-01-16T05:32:51;3.05;;;1.10;;
56541;SDS011;42438;53.174;6.730;2024-01-16T05:35:22;5.07;;;1.92;;
56541;SDS011;42438;53.174;6.730;2024-01-16T05:37:54;11.95;;;1.52;;
56541;SDS011;42438;53.174;6.730;2024-01-16T05:40:25;4.25;;;1.20;;
56541;SDS011;42438;53.174;6.730;2024-01-16T05:42:56;5.50;;;1.70;;
56541;SDS011;42438;53.174;6.730;2024-01-16T05:45:27;6.13;;;1.48;;
56541;SDS011;42438;53.174;6.730;2024-01-16T05:47:58;4.18;;;1.40;;
56541;SDS011;42438;53.174;6.730;2024-01-16T05:50:29;8.77;;;1.65;;
56541;SDS011;42438;53.174;6.730;2024-01-16T05:53:00;5.68;;;1.25;;
56541;SDS011;42438;53.174;6.730;2024-01-16T05:55:30;3.55;;;1.25;;
56541;SDS011;42438;53.174;6.730;2024-01-16T05:58:02;5.70;;;1.50;;
56541;SDS011;42438;53.174;6.730;2024-01-16T06:00:33;7.10;;;1.50;;
56541;SDS011;42438;53.174;6.730;2024-01-16T06:03:04;8.00;;;1.60;;
56541;SDS011;42438;53.174;6.730;2024-01-16T06:05:35;6.63;;;1.20;;
56541;SDS011;42438;53.174;6.730;2024-01-16T06:08:05;4.10;;;1.20;;
56541;SDS011;42438;53.174;6.730;2024-01-16T06:10:36;5.60;;;1.30;;
56541;SDS011;42438;53.174;6.730;2024-01-16T06:13:07;6.10;;;2.03;;
56541;SDS011;42438;53.174;6.730;2024-01-16T06:15:37;5.22;;;1.13;;
56541;SDS011;42438;53.174;6.730;2024-01-16T06:18:08;7.75;;;1.67;;
56541;SDS011;42438;53.174;6.730;2024-01-16T06:20:39;5.13;;;1.35;;
56541;SDS011;42438;53.174;6.730;2024-01-16T06:23:09;6.72;;;1.27;;
56541;SDS011;42438;53.174;6.730;2024-01-16T06:25:40;4.85;;;1.35;;
56541;SDS011;42438;53.174;6.730;2024-01-16T06:28:10;2.47;;;0.90;;
56541;SDS011;42438;53.174;6.730;2024-01-16T06:30:41;8.02;;;1.30;;
56541;SDS011;42438;53.174;6.730;2024-01-16T06:33:12;6.93;;;1.50;;
56541;SDS011;42438;53.174;6.730;2024-01-16T06:35:43;7.93;;;1.88;;
56541;SDS011;42438;53.174;6.730;2024-01-16T06:38:13;6.22;;;1.30;;
56541;SDS011;42438;53.174;6.730;2024-01-16T06:40:44;6.25;;;2.22;;
56541;SDS011;42438;53.174;6.730;2024-01-16T06:43:15;4.13;;;1.38;;
56541;SDS011;42438;53.174;6.730;2024-01-16T06:45:45;5.65;;;1.48;;
56541;SDS011;42438;53.174;6.730;2024-01-16T06:48:16;12.40;;;2.20;;
56541;SDS011;42438;53.174;6.730;2024-01-16T06:50:47;7.72;;;1.30;;
56541;SDS011;42438;53.174;6.730;2024-01-16T06:53:17;7.72;;;1.23;;
56541;SDS011;42438;53.174;6.730;2024-01-16T06:55:48;6.53;;;1.45;;
56541;SDS011;42438;53.174;6.730;2024-01-16T06:58:19;4.85;;;1.50;;
56541;SDS011;42438;53.174;6.730;2024-01-16T07:00:49;4.90;;;1.30;;
56541;SDS011;42438;53.174;6.730;2024-01-16T07:03:20;7.40;;;1.27;;
56541;SDS011;42438;53.174;6.730;2024-01-16T07:05:51;6.80;;;1.95;;
56541;SDS011;42438;53.174;6.730;2024-01-16T07:08:21;3.67;;;1.52;;
56541;SDS011;42438;53.174;6.730;2024-01-16T07:10:52;5.60;;;1.40;;
56541;SDS011;42438;53.174;6.730;2024-01-16T07:13:23;6.03;;;1.38;;
56541;SDS011;42438;53.174;6.730;2024-01-16T07:15:53;5.03;;;1.45;;
56541;SDS011;42438;53.174;6.730;2024-01-16T07:18:24;4.10;;;1.27;;
56541;SDS011;42438;53.174;6.730;2024-01-16T07:20:54;3.78;;;1.00;;
56541;SDS011;42438;53.174;6.730;2024-01-16T07:23:25;1.92;;;0.70;;
56541;SDS011;42438;53.174;6.730;2024-01-16T07:25:56;4.75;;;1.10;;
56541;SDS011;42438;53.174;6.730;2024-01-16T07:28:27;3.60;;;1.00;;
56541;SDS011;42438;53.174;6.730;2024-01-16T07:30:57;4.03;;;1.58;;
56541;SDS011;42438;53.174;6.730;2024-01-16T07:33:28;5.47;;;1.20;;
56541;SDS011;42438;53.174;6.730;2024-01-16T07:35:58;5.72;;;1.50;;
56541;SDS011;42438;53.174;6.730;2024-01-16T07:38:29;5.10;;;1.08;;
56541;SDS011;42438;53.174;6.730;2024-01-16T07:41:00;5.25;;;1.52;;
56541;SDS011;42438;53.174;6.730;2024-01-16T07:43:30;6.28;;;1.17;;
56541;SDS011;42438;53.174;6.730;2024-01-16T07:46:01;3.58;;;1.10;;
56541;SDS011;42438;53.174;6.730;2024-01-16T07:48:33;6.88;;;1.20;;
56541;SDS011;42438;53.174;6.730;2024-01-16T07:51:03;5.97;;;2.05;;
56541;SDS011;42438;53.174;6.730;2024-01-16T07:53:34;6.10;;;1.48;;
56541;SDS011;42438;53.174;6.730;2024-01-16T07:56:05;5.38;;;1.20;;
56541;SDS011;42438;53.174;6.730;2024-01-16T07:58:35;3.80;;;1.35;;
56541;SDS011;42438;53.174;6.730;2024-01-16T08:01:06;4.75;;;1.13;;
56541;SDS011;42438;53.174;6.730;2024-01-16T08:03:37;4.75;;;1.10;;
56541;SDS011;42438;53.174;6.730;2024-01-16T08:06:08;6.38;;;1.10;;
56541;SDS011;42438;53.174;6.730;2024-01-16T08:08:39;7.95;;;1.33;;
56541;SDS011;42438;53.174;6.730;2024-01-16T08:11:10;5.50;;;1.40;;
56541;SDS011;42438;53.174;6.730;2024-01-16T08:13:40;8.65;;;1.30;;
56541;SDS011;42438;53.174;6.730;2024-01-16T08:16:11;4.13;;;0.93;;
56541;SDS011;42438;53.174;6.730;2024-01-16T08:18:42;3.97;;;1.10;;
56541;SDS011;42438;53.174;6.730;2024-01-16T08:21:12;6.80;;;1.20;;
56541;SDS011;42438;53.174;6.730;2024-01-16T08:23:43;4.07;;;1.50;;
56541;SDS011;42438;53.174;6.730;2024-01-16T08:26:13;6.25;;;1.33;;
56541;SDS011;42438;53.174;6.730;2024-01-16T08:28:44;3.33;;;1.25;;
56541;SDS011;42438;53.174;6.730;2024-01-16T08:31:16;7.18;;;1.20;;
56541;SDS011;42438;53.174;6.730;2024-01-16T08:33:48;4.95;;;1.50;;
56541;SDS011;42438;53.174;6.730;2024-01-16T08:36:19;6.72;;;1.20;;
56541;SDS011;42438;53.174;6.730;2024-01-16T08:38:50;9.10;;;2.28;;
56541;SDS011;42438;53.174;6.730;2024-01-16T08:41:20;4.18;;;1.30;;
56541;SDS011;42438;53.174;6.730;2024-01-16T08:43:51;3.97;;;1.65;;
56541;SDS011;42438;53.174;6.730;2024-01-16T08:46:23;5.00;;;1.58;;
56541;SDS011;42438;53.174;6.730;2024-01-16T08:48:53;6.03;;;1.45;;
56541;SDS011;42438;53.174;6.730;2024-01-16T08:51:24;5.60;;;1.23;;
56541;SDS011;42438;53.174;6.730;2024-01-16T08:53:56;4.22;;;1.10;;
56541;SDS011;42438;53.174;6.730;2024-01-16T08:56:26;4.43;;;0.93;;
56541;SDS011;42438;53.174;6.730;2024-01-16T08:58:57;5.75;;;1.30;;
56541;SDS011;42438;53.174;6.730;2024-01-16T09:01:27;4.28;;;1.10;;
56541;SDS011;42438;53.174;6.730;2024-01-16T09:03:58;5.05;;;1.33;;
56541;SDS011;42438;53.174;6.730;2024-01-16T09:06:29;2.72;;;1.27;;
56541;SDS011;42438;53.174;6.730;2024-01-16T09:08:59;5.38;;;1.67;;
56541;SDS011;42438;53.174;6.730;2024-01-16T09:11:30;6.60;;;1.40;;
56541;SDS011;42438;53.174;6.730;2024-01-16T09:14:04;4.45;;;1.25;;
56541;SDS011;42438;53.174;6.730;2024-01-16T09:16:34;6.80;;;1.80;;
56541;SDS011;42438;53.174;6.730;2024-01-16T09:19:05;3.42;;;1.30;;
56541;SDS011;42438;53.174;6.730;2024-01-16T09:21:36;3.33;;;1.10;;
56541;SDS011;42438;53.174;6.730;2024-01-16T09:24:07;3.45;;;1.30;;
56541;SDS011;42438;53.174;6.730;2024-01-16T09:26:38;5.43;;;1.63;;
56541;SDS011;42438;53.174;6.730;2024-01-16T09:29:09;7.82;;;1.40;;
56541;SDS011;42438;53.174;6.730;2024-01-16T09:31:40;3.17;;;0.95;;
56541;SDS011;42438;53.174;6.730;2024-01-16T09:34:11;4.35;;;1.17;;
56541;SDS011;42438;53.174;6.730;2024-01-16T09:36:43;8.15;;;1.52;;
56541;SDS011;42438;53.174;6.730;2024-01-16T09:39:14;7.60;;;1.67;;
56541;SDS011;42438;53.174;6.730;2024-01-16T09:41:46;5.22;;;1.52;;
56541;SDS011;42438;53.174;6.730;2024-01-16T09:44:16;6.47;;;1.33;;
56541;SDS011;42438;53.174;6.730;2024-01-16T09:46:47;4.22;;;1.73;;
56541;SDS011;42438;53.174;6.730;2024-01-16T09:49:20;4.47;;;1.42;;
56541;SDS011;42438;53.174;6.730;2024-01-16T09:51:51;5.97;;;1.38;;
56541;SDS011;42438;53.174;6.730;2024-01-16T09:54:21;4.50;;;1.40;;
56541;SDS011;42438;53.174;6.730;2024-01-16T09:56:53;4.13;;;1.52;;
56541;SDS011;42438;53.174;6.730;2024-01-16T09:59:27;7.90;;;1.90;;
56541;SDS011;42438;53.174;6.730;2024-01-16T10:02:01;10.48;;;2.10;;
56541;SDS011;42438;53.174;6.730;2024-01-16T10:04:36;4.32;;;1.30;;
56541;SDS011;42438;53.174;6.730;2024-01-16T10:07:07;4.68;;;1.63;;
56541;SDS011;42438;53.174;6.730;2024-01-16T10:09:42;6.68;;;1.67;;
56541;SDS011;42438;53.174;6.730;2024-01-16T10:12:13;3.08;;;1.38;;
56541;SDS011;42438;53.174;6.730;2024-01-16T10:14:44;3.50;;;1.40;;
56541;SDS011;42438;53.174;6.730;2024-01-16T10:17:17;7.03;;;1.95;;
56541;SDS011;42438;53.174;6.730;2024-01-16T10:19:52;5.70;;;1.45;;
56541;SDS011;42438;53.174;6.730;2024-01-16T10:22:24;4.13;;;1.40;;
56541;SDS011;42438;53.174;6.730;2024-01-16T10:27:36;7.53;;;1.38;;
56541;SDS011;42438;53.174;6.730;2024-01-16T10:30:08;4.97;;;1.42;;
56541;SDS011;42438;53.174;6.730;2024-01-16T10:32:40;3.42;;;1.30;;
56541;SDS011;42438;53.174;6.730;2024-01-16T10:35:13;3.42;;;1.20;;
56541;SDS011;42438;53.174;6.730;2024-01-16T10:37:45;2.55;;;1.27;;
56541;SDS011;42438;53.174;6.730;2024-01-16T10:40:19;3.90;;;1.30;;
56541;SDS011;42438;53.174;6.730;2024-01-16T10:42:57;6.10;;;1.30;;
56541;SDS011;42438;53.174;6.730;2024-01-16T10:45:30;2.92;;;1.10;;
56541;SDS011;42438;53.174;6.730;2024-01-16T10:48:08;4.00;;;1.48;;
56541;SDS011;42438;53.174;6.730;2024-01-16T10:50:39;4.15;;;1.90;;
56541;SDS011;42438;53.174;6.730;2024-01-16T10:53:11;4.80;;;1.75;;
56541;SDS011;42438;53.174;6.730;2024-01-16T10:58:24;5.18;;;1.83;;
56541;SDS011;42438;53.174;6.730;2024-01-16T11:01:01;4.72;;;1.85;;
56541;SDS011;42438;53.174;6.730;2024-01-16T11:03:40;5.35;;;2.03;;
56541;SDS011;42438;53.174;6.730;2024-01-16T11:06:15;6.50;;;2.80;;
56541;SDS011;42438;53.174;6.730;2024-01-16T11:08:48;9.80;;;2.90;;
56541;SDS011;42438;53.174;6.730;2024-01-16T11:11:19;7.93;;;3.10;;
56541;SDS011;42438;53.174;6.730;2024-01-16T11:13:52;7.85;;;3.42;;
56541;SDS011;42438;53.174;6.730;2024-01-16T11:16:24;6.60;;;3.08;;
56541;SDS011;42438;53.174;6.730;2024-01-16T11:18:55;8.85;;;3.35;;
56541;SDS011;42438;53.174;6.730;2024-01-16T11:21:26;10.10;;;4.10;;
56541;SDS011;42438;53.174;6.730;2024-01-16T11:23:57;10.10;;;4.10;;
56541;SDS011;42438;53.174;6.730;2024-01-16T11:26:28;8.60;;;3.83;;
56541;SDS011;42438;53.174;6.730;2024-01-16T11:31:58;6.22;;;3.05;;
56541;SDS011;42438;53.174;6.730;2024-01-16T11:37:26;6.32;;;3.30;;
56541;SDS011;42438;53.174;6.730;2024-01-16T11:42:56;5.55;;;2.63;;
56541;SDS011;42438;53.174;6.730;2024-01-16T11:48:14;7.68;;;2.08;;
56541;SDS011;42438;53.174;6.730;2024-01-16T11:50:46;5.13;;;1.55;;
56541;SDS011;42438;53.174;6.730;2024-01-16T11:56:15;3.08;;;1.40;;
56541;SDS011;42438;53.174;6.730;2024-01-16T11:59:14;4.43;;;1.27;;
56541;SDS011;42438;53.174;6.730;2024-01-16T12:01:48;3.03;;;1.70;;
56541;SDS011;42438;53.174;6.730;2024-01-16T12:04:22;3.58;;;1.77;;
56541;SDS011;42438;53.174;6.730;2024-01-16T12:06:59;4.43;;;1.80;;
56541;SDS011;42438;53.174;6.730;2024-01-16T12:09:30;4.65;;;1.70;;
56541;SDS011;42438;53.174;6.730;2024-01-16T12:12:02;4.78;;;1.80;;
56541;SDS011;42438;53.174;6.730;2024-01-16T12:14:33;3.85;;;1.38;;
56541;SDS011;42438;53.174;6.730;2024-01-16T12:17:10;3.78;;;1.60;;
56541;SDS011;42438;53.174;6.730;2024-01-16T12:19:41;4.00;;;1.95;;
56541;SDS011;42438;53.174;6.730;2024-01-16T12:22:13;3.80;;;1.70;;
56541;SDS011;42438;53.174;6.730;2024-01-16T12:24:44;5.30;;;1.42;;
56541;SDS011;42438;53.174;6.730;2024-01-16T12:27:15;6.40;;;1.95;;
56541;SDS011;42438;53.174;6.730;2024-01-16T12:29:46;3.47;;;1.67;;
56541;SDS011;42438;53.174;6.730;2024-01-16T12:32:17;6.10;;;1.70;;
56541;SDS011;42438;53.174;6.730;2024-01-16T12:34:50;7.00;;;2.13;;
56541;SDS011;42438;53.174;6.730;2024-01-16T12:37:21;5.70;;;1.67;;
56541;SDS011;42438;53.174;6.730;2024-01-16T12:39:52;4.75;;;2.10;;
56541;SDS011;42438;53.174;6.730;2024-01-16T12:42:22;5.60;;;1.60;;
56541;SDS011;42438;53.174;6.730;2024-01-16T12:44:54;6.65;;;1.77;;
56541;SDS011;42438;53.174;6.730;2024-01-16T12:47:25;4.13;;;1.52;;
56541;SDS011;42438;53.174;6.730;2024-01-16T12:49:56;5.70;;;1.63;;
56541;SDS011;42438;53.174;6.730;2024-01-16T12:52:27;6.35;;;1.67;;
56541;SDS011;42438;53.174;6.730;2024-01-16T12:55:00;8.95;;;1.92;;
56541;SDS011;42438;53.174;6.730;2024-01-16T12:57:31;6.55;;;1.65;;
56541;SDS011;42438;53.174;6.730;2024-01-16T13:00:20;5.03;;;2.22;;
56541;SDS011;42438;53.174;6.730;2024-01-16T13:02:51;4.97;;;1.90;;
56541;SDS011;42438;53.174;6.730;2024-01-16T13:05:23;6.07;;;2.00;;
56541;SDS011;42438;53.174;6.730;2024-01-16T13:08:02;6.35;;;2.55;;
56541;SDS011;42438;53.174;6.730;2024-01-16T13:10:35;8.35;;;2.78;;
56541;SDS011;42438;53.174;6.730;2024-01-16T13:13:14;8.80;;;2.67;;
56541;SDS011;42438;53.174;6.730;2024-01-16T13:15:47;9.93;;;2.45;;
56541;SDS011;42438;53.174;6.730;2024-01-16T13:18:22;8.18;;;2.72;;
56541;SDS011;42438;53.174;6.730;2024-01-16T13:20:55;9.77;;;2.92;;
56541;SDS011;42438;53.174;6.730;2024-01-16T13:23:27;7.75;;;2.60;;
56541;SDS011;42438;53.174;6.730;2024-01-16T13:25:58;6.00;;;2.58;;
56541;SDS011;42438;53.174;6.730;2024-01-16T13:28:29;8.50;;;2.83;;
56541;SDS011;42438;53.174;6.730;2024-01-16T13:31:00;6.43;;;2.53;;
56541;SDS011;42438;53.174;6.730;2024-01-16T13:33:31;5.38;;;2.40;;
56541;SDS011;42438;53.174;6.730;2024-01-16T13:36:02;6.53;;;2.85;;
56541;SDS011;42438;53.174;6.730;2024-01-16T13:38:34;6.70;;;2.75;;
56541;SDS011;42438;53.174;6.730;2024-01-16T13:41:05;9.93;;;3.28;;
56541;SDS011;42438;53.174;6.730;2024-01-16T13:43:36;11.55;;;3.40;;
56541;SDS011;42438;53.174;6.730;2024-01-16T13:46:08;11.13;;;3.60;;
56541;SDS011;42438;53.174;6.730;2024-01-16T13:48:40;7.90;;;2.85;;
56541;SDS011;42438;53.174;6.730;2024-01-16T13:51:11;8.38;;;3.08;;
56541;SDS011;42438;53.174;6.730;2024-01-16T13:53:41;7.28;;;3.05;;
56541;SDS011;42438;53.174;6.730;2024-01-16T13:56:12;8.05;;;3.15;;
56541;SDS011;42438;53.174;6.730;2024-01-16T13:58:43;6.03;;;2.83;;
56541;SDS011;42438;53.174;6.730;2024-01-16T14:01:15;8.35;;;3.67;;
56541;SDS011;42438;53.174;6.730;2024-01-16T14:03:46;10.90;;;3.85;;
56541;SDS011;42438;53.174;6.730;2024-01-16T14:06:17;6.68;;;3.50;;
56541;SDS011;42438;53.174;6.730;2024-01-16T14:08:48;11.10;;;4.20;;
56541;SDS011;42438;53.174;6.730;2024-01-16T14:11:19;8.07;;;3.50;;
56541;SDS011;42438;53.174;6.730;2024-01-16T14:13:50;6.82;;;3.35;;
56541;SDS011;42438;53.174;6.730;2024-01-16T14:16:21;7.65;;;3.65;;
56541;SDS011;42438;53.174;6.730;2024-01-16T14:18:51;9.75;;;4.32;;
56541;SDS011;42438;53.174;6.730;2024-01-16T14:21:22;10.32;;;4.05;;
56541;SDS011;42438;53.174;6.730;2024-01-16T14:23:52;7.15;;;3.55;;
56541;SDS011;42438;53.174;6.730;2024-01-16T14:26:24;8.27;;;3.88;;
56541;SDS011;42438;53.174;6.730;2024-01-16T14:28:54;9.55;;;4.03;;
56541;SDS011;42438;53.174;6.730;2024-01-16T14:31:25;12.27;;;4.03;;
56541;SDS011;42438;53.174;6.730;2024-01-16T14:33:57;9.55;;;3.55;;
56541;SDS011;42438;53.174;6.730;2024-01-16T14:36:27;6.03;;;3.40;;
56541;SDS011;42438;53.174;6.730;2024-01-16T14:38:58;9.07;;;3.63;;
56541;SDS011;42438;53.174;6.730;2024-01-16T14:41:29;9.77;;;3.80;;
56541;SDS011;42438;53.174;6.730;2024-01-16T14:43:59;6.10;;;3.30;;
56541;SDS011;42438;53.174;6.730;2024-01-16T14:46:30;8.82;;;3.78;;
56541;SDS011;42438;53.174;6.730;2024-01-16T14:49:01;8.40;;;3.40;;
56541;SDS011;42438;53.174;6.730;2024-01-16T14:51:32;6.75;;;3.83;;
56541;SDS011;42438;53.174;6.730;2024-01-16T14:54:03;8.52;;;3.47;;
56541;SDS011;42438;53.174;6.730;2024-01-16T14:56:34;7.72;;;3.50;;
56541;SDS011;42438;53.174;6.730;2024-01-16T14:59:05;6.30;;;3.10;;
56541;SDS011;42438;53.174;6.730;2024-01-16T15:01:36;7.90;;;3.97;;
56541;SDS011;42438;53.174;6.730;2024-01-16T15:04:07;8.50;;;4.13;;
56541;SDS011;42438;53.174;6.730;2024-01-16T15:06:39;9.00;;;3.72;;
56541;SDS011;42438;53.174;6.730;2024-01-16T15:09:10;8.15;;;2.92;;
56541;SDS011;42438;53.174;6.730;2024-01-16T15:11:42;10.65;;;2.97;;
56541;SDS011;42438;53.174;6.730;2024-01-16T15:14:13;7.47;;;2.97;;
56541;SDS011;42438;53.174;6.730;2024-01-16T15:16:44;8.13;;;2.97;;
56541;SDS011;42438;53.174;6.730;2024-01-16T15:19:14;8.70;;;3.00;;
56541;SDS011;42438;53.174;6.730;2024-01-16T15:21:45;8.98;;;2.88;;
56541;SDS011;42438;53.174;6.730;2024-01-16T15:24:16;9.43;;;2.50;;
56541;SDS011;42438;53.174;6.730;2024-01-16T15:26:50;9.18;;;3.00;;
56541;SDS011;42438;53.174;6.730;2024-01-16T15:29:20;6.70;;;2.33;;
56541;SDS011;42438;53.174;6.730;2024-01-16T15:31:51;5.07;;;2.25;;
56541;SDS011;42438;53.174;6.730;2024-01-16T15:34:22;8.05;;;2.40;;
56541;SDS011;42438;53.174;6.730;2024-01-16T15:36:53;7.40;;;2.03;;